sensor_id;sensor_type;location;lat;lon;timestamp;temperature;humidity
20147;DHT22;10234;50.856;15.716;2023-02-03T00:02:23;-2.30;99.90
20147;DHT22;10234;50.856;15.716;2023-02-03T00:04:50;-2.40;99.90
20147;DHT22;10234;50.856;15.716;2023-02-03T00:07:17;-2.40;99.90
20147;DHT22;10234;50.856;15.716;2023-02-03T00:12:12;-2.40;99.90
20147;DHT22;10234;50.856;15.716;2023-02-03T00:14:40;-2.50;99.90
20147;DHT22;10234;50.856;15.716;2023-02-03T00:19:35;-2.50;99.90
20147;DHT22;10234;50.856;15.716;2023-02-03T00:24:29;-2.40;99.90
20147;DHT22;10234;50.856;15.716;2023-02-03T00:26:56;-2.40;99.90
20147;DHT22;10234;50.856;15.716;2023-02-03T00:29:24;-2.60;99.90
20147;DHT22;10234;50.856;15.716;2023-02-03T00:31:51;-2.40;99.90
20147;DHT22;10234;50.856;15.716;2023-02-03T00:34:19;-2.40;99.90
20147;DHT22;10234;50.856;15.716;2023-02-03T00:36:47;-2.40;99.90
20147;DHT22;10234;50.856;15.716;2023-02-03T00:39:15;-2.30;99.90
20147;DHT22;10234;50.856;15.716;2023-02-03T00:41:42;-2.40;99.90
20147;DHT22;10234;50.856;15.716;2023-02-03T00:44:09;-2.30;99.90
20147;DHT22;10234;50.856;15.716;2023-02-03T00:46:38;-2.40;99.90
20147;DHT22;10234;50.856;15.716;2023-02-03T00:49:06;-2.30;99.90
20147;DHT22;10234;50.856;15.716;2023-02-03T00:51:34;-2.20;99.90
20147;DHT22;10234;50.856;15.716;2023-02-03T00:54:02;-2.40;99.90
20147;DHT22;10234;50.856;15.716;2023-02-03T00:56:29;-2.20;99.90
20147;DHT22;10234;50.856;15.716;2023-02-03T01:01:23;-2.30;99.90
20147;DHT22;10234;50.856;15.716;2023-02-03T01:03:53;-2.60;99.90
20147;DHT22;10234;50.856;15.716;2023-02-03T01:06:21;-2.30;99.90
20147;DHT22;10234;50.856;15.716;2023-02-03T01:11:19;-2.30;99.90
20147;DHT22;10234;50.856;15.716;2023-02-03T01:16:17;-2.30;99.90
20147;DHT22;10234;50.856;15.716;2023-02-03T01:21:13;-2.20;99.90
20147;DHT22;10234;50.856;15.716;2023-02-03T01:23:40;-2.00;99.90
20147;DHT22;10234;50.856;15.716;2023-02-03T01:26:09;-2.20;99.90
20147;DHT22;10234;50.856;15.716;2023-02-03T01:28:38;-2.30;99.90
20147;DHT22;10234;50.856;15.716;2023-02-03T01:31:10;-2.40;99.90
20147;DHT22;10234;50.856;15.716;2023-02-03T01:33:37;-2.10;99.90
20147;DHT22;10234;50.856;15.716;2023-02-03T01:36:06;-2.20;99.90
20147;DHT22;10234;50.856;15.716;2023-02-03T01:38:34;-2.20;99.90
20147;DHT22;10234;50.856;15.716;2023-02-03T01:41:01;-2.10;99.90
20147;DHT22;10234;50.856;15.716;2023-02-03T01:43:30;-2.20;99.90
20147;DHT22;10234;50.856;15.716;2023-02-03T01:46:02;-2.10;99.90
20147;DHT22;10234;50.856;15.716;2023-02-03T01:48:31;-2.20;99.90
20147;DHT22;10234;50.856;15.716;2023-02-03T01:51:01;-2.00;99.90
20147;DHT22;10234;50.856;15.716;2023-02-03T01:53:30;-2.00;99.90
20147;DHT22;10234;50.856;15.716;2023-02-03T01:58:28;-2.10;99.90
20147;DHT22;10234;50.856;15.716;2023-02-03T02:00:57;-2.10;99.90
20147;DHT22;10234;50.856;15.716;2023-02-03T02:03:28;-2.00;99.90
20147;DHT22;10234;50.856;15.716;2023-02-03T02:06:01;-2.00;99.90
20147;DHT22;10234;50.856;15.716;2023-02-03T02:08:30;-1.90;99.90
20147;DHT22;10234;50.856;15.716;2023-02-03T02:10:58;-1.90;99.90
20147;DHT22;10234;50.856;15.716;2023-02-03T02:13:26;-0.50;99.90
20147;DHT22;10234;50.856;15.716;2023-02-03T02:15:58;-1.80;99.90
20147;DHT22;10234;50.856;15.716;2023-02-03T02:18:50;-1.80;99.90
20147;DHT22;10234;50.856;15.716;2023-02-03T02:21:47;-1.30;99.90
20147;DHT22;10234;50.856;15.716;2023-02-03T02:24:40;-1.70;99.90
20147;DHT22;10234;50.856;15.716;2023-02-03T02:30:42;-1.60;99.90
20147;DHT22;10234;50.856;15.716;2023-02-03T02:33:18;-1.60;99.90
20147;DHT22;10234;50.856;15.716;2023-02-03T02:35:55;-1.50;99.90
20147;DHT22;10234;50.856;15.716;2023-02-03T02:38:43;-1.50;99.90
20147;DHT22;10234;50.856;15.716;2023-02-03T02:41:16;-1.50;99.90
20147;DHT22;10234;50.856;15.716;2023-02-03T02:43:48;-1.40;99.90
20147;DHT22;10234;50.856;15.716;2023-02-03T02:46:37;-1.50;99.90
20147;DHT22;10234;50.856;15.716;2023-02-03T02:49:09;-1.40;99.90
20147;DHT22;10234;50.856;15.716;2023-02-03T02:51:40;-1.40;99.90
20147;DHT22;10234;50.856;15.716;2023-02-03T02:54:12;-1.40;99.90
20147;DHT22;10234;50.856;15.716;2023-02-03T02:56:42;-1.40;99.90
20147;DHT22;10234;50.856;15.716;2023-02-03T02:59:11;-1.30;99.90
20147;DHT22;10234;50.856;15.716;2023-02-03T03:01:39;-1.30;99.90
20147;DHT22;10234;50.856;15.716;2023-02-03T03:04:09;-1.20;99.90
20147;DHT22;10234;50.856;15.716;2023-02-03T03:06:40;-1.20;99.90
20147;DHT22;10234;50.856;15.716;2023-02-03T03:09:10;-1.20;99.90
20147;DHT22;10234;50.856;15.716;2023-02-03T03:11:42;-1.20;99.90
20147;DHT22;10234;50.856;15.716;2023-02-03T03:14:11;-1.10;99.90
20147;DHT22;10234;50.856;15.716;2023-02-03T03:16:43;-0.90;99.90
20147;DHT22;10234;50.856;15.716;2023-02-03T03:19:18;-1.00;99.90
20147;DHT22;10234;50.856;15.716;2023-02-03T03:21:49;-1.00;99.90
20147;DHT22;10234;50.856;15.716;2023-02-03T03:24:23;-0.90;99.90
20147;DHT22;10234;50.856;15.716;2023-02-03T03:26:54;2.10;99.90
20147;DHT22;10234;50.856;15.716;2023-02-03T03:29:25;-0.90;99.90
20147;DHT22;10234;50.856;15.716;2023-02-03T03:31:54;-0.80;99.90
20147;DHT22;10234;50.856;15.716;2023-02-03T03:34:23;-0.80;99.90
20147;DHT22;10234;50.856;15.716;2023-02-03T03:36:57;-0.70;99.90
20147;DHT22;10234;50.856;15.716;2023-02-03T03:39:31;-0.70;99.90
20147;DHT22;10234;50.856;15.716;2023-02-03T03:42:05;0.00;99.90
20147;DHT22;10234;50.856;15.716;2023-02-03T03:44:37;-0.50;99.90
20147;DHT22;10234;50.856;15.716;2023-02-03T03:47:09;-0.50;99.90
20147;DHT22;10234;50.856;15.716;2023-02-03T03:49:41;-0.50;99.90
20147;DHT22;10234;50.856;15.716;2023-02-03T03:52:10;-0.50;99.90
20147;DHT22;10234;50.856;15.716;2023-02-03T03:54:41;-0.50;99.90
20147;DHT22;10234;50.856;15.716;2023-02-03T03:57:12;-0.50;99.90
20147;DHT22;10234;50.856;15.716;2023-02-03T03:59:44;-0.50;99.90
20147;DHT22;10234;50.856;15.716;2023-02-03T04:02:13;0.00;99.90
20147;DHT22;10234;50.856;15.716;2023-02-03T04:04:43;-0.70;99.90
20147;DHT22;10234;50.856;15.716;2023-02-03T04:07:12;0.40;99.90
20147;DHT22;10234;50.856;15.716;2023-02-03T04:09:39;-0.30;99.90
20147;DHT22;10234;50.856;15.716;2023-02-03T04:12:22;-0.20;99.90
20147;DHT22;10234;50.856;15.716;2023-02-03T04:14:49;-0.30;99.90
20147;DHT22;10234;50.856;15.716;2023-02-03T04:17:16;-0.10;99.90
20147;DHT22;10234;50.856;15.716;2023-02-03T04:19:46;-0.10;99.90
20147;DHT22;10234;50.856;15.716;2023-02-03T04:22:16;0.00;99.90
20147;DHT22;10234;50.856;15.716;2023-02-03T04:24:43;0.00;99.90
20147;DHT22;10234;50.856;15.716;2023-02-03T04:27:10;0.00;99.90
20147;DHT22;10234;50.856;15.716;2023-02-03T04:29:37;-0.10;99.90
20147;DHT22;10234;50.856;15.716;2023-02-03T04:34:31;-0.10;99.90
20147;DHT22;10234;50.856;15.716;2023-02-03T04:37:00;-0.10;99.90
20147;DHT22;10234;50.856;15.716;2023-02-03T04:39:27;-0.20;99.90
20147;DHT22;10234;50.856;15.716;2023-02-03T04:41:54;-0.30;99.90
20147;DHT22;10234;50.856;15.716;2023-02-03T04:46:48;-0.40;99.90
20147;DHT22;10234;50.856;15.716;2023-02-03T04:49:15;-0.20;99.90
20147;DHT22;10234;50.856;15.716;2023-02-03T04:51:42;-0.90;99.90
20147;DHT22;10234;50.856;15.716;2023-02-03T04:54:11;-0.30;99.90
20147;DHT22;10234;50.856;15.716;2023-02-03T04:59:05;-0.40;99.90
20147;DHT22;10234;50.856;15.716;2023-02-03T05:01:32;-0.20;99.90
20147;DHT22;10234;50.856;15.716;2023-02-03T05:06:28;-0.30;99.90
20147;DHT22;10234;50.856;15.716;2023-02-03T05:11:25;-0.40;99.90
20147;DHT22;10234;50.856;15.716;2023-02-03T05:13:53;-0.40;99.90
20147;DHT22;10234;50.856;15.716;2023-02-03T05:16:20;-0.40;99.90
20147;DHT22;10234;50.856;15.716;2023-02-03T05:18:47;-0.20;99.90
20147;DHT22;10234;50.856;15.716;2023-02-03T05:23:41;0.00;99.90
20147;DHT22;10234;50.856;15.716;2023-02-03T05:26:11;-0.50;99.90
20147;DHT22;10234;50.856;15.716;2023-02-03T05:28:40;-0.40;99.90
20147;DHT22;10234;50.856;15.716;2023-02-03T05:36:01;-0.30;99.90
20147;DHT22;10234;50.856;15.716;2023-02-03T05:38:29;-0.30;99.90
20147;DHT22;10234;50.856;15.716;2023-02-03T05:40:55;-0.30;99.90
20147;DHT22;10234;50.856;15.716;2023-02-03T05:43:40;-0.40;99.90
20147;DHT22;10234;50.856;15.716;2023-02-03T05:48:35;-0.50;99.90
20147;DHT22;10234;50.856;15.716;2023-02-03T05:51:02;-0.40;99.90
20147;DHT22;10234;50.856;15.716;2023-02-03T05:55:56;-0.40;99.90
20147;DHT22;10234;50.856;15.716;2023-02-03T05:58:23;-0.40;99.90
20147;DHT22;10234;50.856;15.716;2023-02-03T06:00:52;-0.30;99.90
20147;DHT22;10234;50.856;15.716;2023-02-03T06:03:19;-0.20;99.90
20147;DHT22;10234;50.856;15.716;2023-02-03T06:05:46;0.00;99.90
20147;DHT22;10234;50.856;15.716;2023-02-03T06:08:13;0.10;99.90
20147;DHT22;10234;50.856;15.716;2023-02-03T06:10:40;0.30;99.90
20147;DHT22;10234;50.856;15.716;2023-02-03T06:13:08;0.50;99.90
20147;DHT22;10234;50.856;15.716;2023-02-03T06:15:36;0.70;99.90
20147;DHT22;10234;50.856;15.716;2023-02-03T06:18:05;0.80;99.90
20147;DHT22;10234;50.856;15.716;2023-02-03T06:22:59;1.20;99.90
20147;DHT22;10234;50.856;15.716;2023-02-03T06:35:19;1.80;99.90
20147;DHT22;10234;50.856;15.716;2023-02-03T06:37:46;2.10;99.90
20147;DHT22;10234;50.856;15.716;2023-02-03T06:40:13;2.00;99.90
20147;DHT22;10234;50.856;15.716;2023-02-03T06:42:44;1.90;99.90
20147;DHT22;10234;50.856;15.716;2023-02-03T06:45:11;2.10;99.90
20147;DHT22;10234;50.856;15.716;2023-02-03T06:47:39;2.00;99.90
20147;DHT22;10234;50.856;15.716;2023-02-03T06:50:06;1.80;99.90
20147;DHT22;10234;50.856;15.716;2023-02-03T06:52:35;2.10;99.90
20147;DHT22;10234;50.856;15.716;2023-02-03T06:55:02;2.00;99.90
20147;DHT22;10234;50.856;15.716;2023-02-03T06:59:57;2.30;99.90
20147;DHT22;10234;50.856;15.716;2023-02-03T07:02:24;1.90;99.90
20147;DHT22;10234;50.856;15.716;2023-02-03T07:09:47;2.60;99.90
20147;DHT22;10234;50.856;15.716;2023-02-03T07:17:08;2.80;99.90
20147;DHT22;10234;50.856;15.716;2023-02-03T07:22:02;2.80;99.90
20147;DHT22;10234;50.856;15.716;2023-02-03T07:26:58;3.00;99.90
20147;DHT22;10234;50.856;15.716;2023-02-03T07:29:25;3.20;99.90
20147;DHT22;10234;50.856;15.716;2023-02-03T07:31:52;3.20;99.90
20147;DHT22;10234;50.856;15.716;2023-02-03T07:34:19;3.30;99.90
20147;DHT22;10234;50.856;15.716;2023-02-03T07:39:13;3.00;99.90
20147;DHT22;10234;50.856;15.716;2023-02-03T07:44:09;3.40;99.90
20147;DHT22;10234;50.856;15.716;2023-02-03T07:46:36;3.50;99.90
20147;DHT22;10234;50.856;15.716;2023-02-03T07:49:09;3.50;99.90
20147;DHT22;10234;50.856;15.716;2023-02-03T07:51:36;3.40;99.90
20147;DHT22;10234;50.856;15.716;2023-02-03T07:56:30;3.70;99.90
20147;DHT22;10234;50.856;15.716;2023-02-03T07:58:57;3.60;99.90
20147;DHT22;10234;50.856;15.716;2023-02-03T08:01:26;3.70;99.90
20147;DHT22;10234;50.856;15.716;2023-02-03T08:03:53;3.70;99.90
20147;DHT22;10234;50.856;15.716;2023-02-03T08:06:20;3.70;99.90
20147;DHT22;10234;50.856;15.716;2023-02-03T08:13:42;3.90;99.90
20147;DHT22;10234;50.856;15.716;2023-02-03T08:16:08;3.90;99.90
20147;DHT22;10234;50.856;15.716;2023-02-03T08:18:37;3.90;99.90
20147;DHT22;10234;50.856;15.716;2023-02-03T08:21:04;3.90;99.90
20147;DHT22;10234;50.856;15.716;2023-02-03T08:23:31;3.90;99.90
20147;DHT22;10234;50.856;15.716;2023-02-03T08:25:58;3.90;99.90
20147;DHT22;10234;50.856;15.716;2023-02-03T08:28:25;4.00;99.90
20147;DHT22;10234;50.856;15.716;2023-02-03T08:33:21;4.00;99.90
20147;DHT22;10234;50.856;15.716;2023-02-03T08:35:49;3.40;99.90
20147;DHT22;10234;50.856;15.716;2023-02-03T08:38:16;4.00;99.90
20147;DHT22;10234;50.856;15.716;2023-02-03T08:43:11;4.00;99.90
20147;DHT22;10234;50.856;15.716;2023-02-03T08:45:38;3.90;99.90
20147;DHT22;10234;50.856;15.716;2023-02-03T08:48:06;4.10;99.90
20147;DHT22;10234;50.856;15.716;2023-02-03T08:53:01;4.10;99.90
20147;DHT22;10234;50.856;15.716;2023-02-03T08:55:28;4.20;99.90
20147;DHT22;10234;50.856;15.716;2023-02-03T08:57:56;4.70;99.90
20147;DHT22;10234;50.856;15.716;2023-02-03T09:00:23;4.30;99.90
20147;DHT22;10234;50.856;15.716;2023-02-03T09:05:17;4.30;99.90
20147;DHT22;10234;50.856;15.716;2023-02-03T09:07:44;4.20;99.90
20147;DHT22;10234;50.856;15.716;2023-02-03T09:10:13;4.50;99.90
20147;DHT22;10234;50.856;15.716;2023-02-03T09:15:08;4.40;99.90
20147;DHT22;10234;50.856;15.716;2023-02-03T09:22:30;4.40;99.90
20147;DHT22;10234;50.856;15.716;2023-02-03T09:24:57;4.60;99.90
20147;DHT22;10234;50.856;15.716;2023-02-03T09:27:25;4.50;99.90
20147;DHT22;10234;50.856;15.716;2023-02-03T09:32:19;4.30;99.90
20147;DHT22;10234;50.856;15.716;2023-02-03T09:39:41;4.10;99.90
20147;DHT22;10234;50.856;15.716;2023-02-03T09:42:34;4.10;99.90
20147;DHT22;10234;50.856;15.716;2023-02-03T09:45:11;4.10;99.90
20147;DHT22;10234;50.856;15.716;2023-02-03T09:47:43;4.00;99.90
20147;DHT22;10234;50.856;15.716;2023-02-03T09:50:14;4.00;99.90
20147;DHT22;10234;50.856;15.716;2023-02-03T09:52:45;4.10;99.90
20147;DHT22;10234;50.856;15.716;2023-02-03T09:55:24;4.10;99.90
20147;DHT22;10234;50.856;15.716;2023-02-03T09:57:56;4.90;99.90
20147;DHT22;10234;50.856;15.716;2023-02-03T10:00:27;4.00;99.90
20147;DHT22;10234;50.856;15.716;2023-02-03T10:02:58;4.20;99.90
20147;DHT22;10234;50.856;15.716;2023-02-03T10:05:52;4.10;99.90
20147;DHT22;10234;50.856;15.716;2023-02-03T10:08:27;4.10;99.90
20147;DHT22;10234;50.856;15.716;2023-02-03T10:11:03;3.90;99.90
20147;DHT22;10234;50.856;15.716;2023-02-03T10:13:47;4.10;99.90
20147;DHT22;10234;50.856;15.716;2023-02-03T10:16:34;4.00;99.90
20147;DHT22;10234;50.856;15.716;2023-02-03T10:19:10;4.30;99.90
20147;DHT22;10234;50.856;15.716;2023-02-03T10:21:41;3.90;99.90
20147;DHT22;10234;50.856;15.716;2023-02-03T10:24:12;4.00;99.90
20147;DHT22;10234;50.856;15.716;2023-02-03T10:26:40;3.90;99.90
20147;DHT22;10234;50.856;15.716;2023-02-03T10:29:17;3.90;99.90
20147;DHT22;10234;50.856;15.716;2023-02-03T10:31:46;3.90;99.90
20147;DHT22;10234;50.856;15.716;2023-02-03T10:34:14;4.00;99.90
20147;DHT22;10234;50.856;15.716;2023-02-03T10:36:51;4.10;99.90
20147;DHT22;10234;50.856;15.716;2023-02-03T10:39:27;4.10;99.90
20147;DHT22;10234;50.856;15.716;2023-02-03T10:41:55;4.10;99.90
20147;DHT22;10234;50.856;15.716;2023-02-03T10:44:31;4.10;99.90
20147;DHT22;10234;50.856;15.716;2023-02-03T10:47:01;4.20;99.90
20147;DHT22;10234;50.856;15.716;2023-02-03T10:51:59;4.30;99.90
20147;DHT22;10234;50.856;15.716;2023-02-03T10:54:31;4.30;99.90
20147;DHT22;10234;50.856;15.716;2023-02-03T10:57:02;4.30;99.90
20147;DHT22;10234;50.856;15.716;2023-02-03T10:59:34;4.30;99.90
20147;DHT22;10234;50.856;15.716;2023-02-03T11:02:08;4.40;99.90
20147;DHT22;10234;50.856;15.716;2023-02-03T11:04:36;4.40;99.90
20147;DHT22;10234;50.856;15.716;2023-02-03T11:07:06;4.40;99.90
20147;DHT22;10234;50.856;15.716;2023-02-03T11:09:34;4.50;99.90
20147;DHT22;10234;50.856;15.716;2023-02-03T11:12:09;4.60;99.90
20147;DHT22;10234;50.856;15.716;2023-02-03T11:14:41;4.50;99.90
20147;DHT22;10234;50.856;15.716;2023-02-03T11:17:15;4.60;99.90
20147;DHT22;10234;50.856;15.716;2023-02-03T11:19:44;4.60;99.90
20147;DHT22;10234;50.856;15.716;2023-02-03T11:22:13;4.60;99.90
20147;DHT22;10234;50.856;15.716;2023-02-03T11:24:52;4.70;99.90
20147;DHT22;10234;50.856;15.716;2023-02-03T11:27:20;4.70;99.90
20147;DHT22;10234;50.856;15.716;2023-02-03T11:29:54;4.70;99.90
20147;DHT22;10234;50.856;15.716;2023-02-03T11:32:34;4.70;99.90
20147;DHT22;10234;50.856;15.716;2023-02-03T11:35:03;4.90;99.90
20147;DHT22;10234;50.856;15.716;2023-02-03T11:37:32;4.80;99.90
20147;DHT22;10234;50.856;15.716;2023-02-03T11:40:24;4.70;99.90
20147;DHT22;10234;50.856;15.716;2023-02-03T11:43:00;4.70;99.90
20147;DHT22;10234;50.856;15.716;2023-02-03T11:45:35;4.70;99.90
20147;DHT22;10234;50.856;15.716;2023-02-03T11:48:15;4.60;99.90
20147;DHT22;10234;50.856;15.716;2023-02-03T11:50:46;4.70;99.90
20147;DHT22;10234;50.856;15.716;2023-02-03T11:53:28;4.70;99.90
20147;DHT22;10234;50.856;15.716;2023-02-03T11:56:12;4.80;99.90
20147;DHT22;10234;50.856;15.716;2023-02-03T11:58:59;4.80;99.90
20147;DHT22;10234;50.856;15.716;2023-02-03T12:04:46;4.80;99.90
20147;DHT22;10234;50.856;15.716;2023-02-03T12:07:48;4.80;99.90
20147;DHT22;10234;50.856;15.716;2023-02-03T12:10:28;4.90;99.90
20147;DHT22;10234;50.856;15.716;2023-02-03T12:13:01;4.90;99.90
20147;DHT22;10234;50.856;15.716;2023-02-03T12:15:45;5.10;99.90
20147;DHT22;10234;50.856;15.716;2023-02-03T12:18:29;5.00;99.90
20147;DHT22;10234;50.856;15.716;2023-02-03T12:21:11;4.90;99.90
20147;DHT22;10234;50.856;15.716;2023-02-03T12:23:52;5.00;99.90
20147;DHT22;10234;50.856;15.716;2023-02-03T12:26:23;5.00;99.90
20147;DHT22;10234;50.856;15.716;2023-02-03T12:28:57;5.00;99.90
20147;DHT22;10234;50.856;15.716;2023-02-03T12:31:31;5.00;99.90
20147;DHT22;10234;50.856;15.716;2023-02-03T12:34:09;5.10;99.90
20147;DHT22;10234;50.856;15.716;2023-02-03T12:36:44;5.10;99.90
20147;DHT22;10234;50.856;15.716;2023-02-03T12:39:21;5.10;99.90
20147;DHT22;10234;50.856;15.716;2023-02-03T12:41:55;5.10;99.90
20147;DHT22;10234;50.856;15.716;2023-02-03T12:44:28;5.20;99.90
20147;DHT22;10234;50.856;15.716;2023-02-03T12:47:02;5.20;99.90
20147;DHT22;10234;50.856;15.716;2023-02-03T12:49:37;5.30;99.90
20147;DHT22;10234;50.856;15.716;2023-02-03T12:52:13;6.00;99.90
20147;DHT22;10234;50.856;15.716;2023-02-03T12:54:58;5.40;99.90
20147;DHT22;10234;50.856;15.716;2023-02-03T12:57:31;5.10;99.90
20147;DHT22;10234;50.856;15.716;2023-02-03T13:00:09;5.40;99.90
20147;DHT22;10234;50.856;15.716;2023-02-03T13:02:48;5.50;99.90
20147;DHT22;10234;50.856;15.716;2023-02-03T13:05:23;5.50;99.90
20147;DHT22;10234;50.856;15.716;2023-02-03T13:07:58;5.40;99.90
20147;DHT22;10234;50.856;15.716;2023-02-03T13:10:32;5.40;99.90
20147;DHT22;10234;50.856;15.716;2023-02-03T13:13:00;5.40;99.90
20147;DHT22;10234;50.856;15.716;2023-02-03T13:15:31;5.50;99.90
20147;DHT22;10234;50.856;15.716;2023-02-03T13:18:02;5.20;99.90
20147;DHT22;10234;50.856;15.716;2023-02-03T13:20:33;5.30;99.90
20147;DHT22;10234;50.856;15.716;2023-02-03T13:23:04;5.30;99.90
20147;DHT22;10234;50.856;15.716;2023-02-03T13:25:44;5.70;99.90
20147;DHT22;10234;50.856;15.716;2023-02-03T13:28:21;5.90;99.90
20147;DHT22;10234;50.856;15.716;2023-02-03T13:31:07;5.50;99.90
20147;DHT22;10234;50.856;15.716;2023-02-03T13:34:13;5.60;99.90
20147;DHT22;10234;50.856;15.716;2023-02-03T13:39:49;5.30;99.90
20147;DHT22;10234;50.856;15.716;2023-02-03T13:42:22;5.20;99.90
20147;DHT22;10234;50.856;15.716;2023-02-03T13:44:52;4.70;99.90
20147;DHT22;10234;50.856;15.716;2023-02-03T13:47:23;4.10;99.90
20147;DHT22;10234;50.856;15.716;2023-02-03T13:49:54;4.40;99.90
20147;DHT22;10234;50.856;15.716;2023-02-03T13:52:29;3.50;99.90
20147;DHT22;10234;50.856;15.716;2023-02-03T13:54:58;3.40;99.90
20147;DHT22;10234;50.856;15.716;2023-02-03T13:57:31;3.10;99.90
20147;DHT22;10234;50.856;15.716;2023-02-03T14:00:02;3.20;99.90
20147;DHT22;10234;50.856;15.716;2023-02-03T14:02:49;3.20;99.90
20147;DHT22;10234;50.856;15.716;2023-02-03T14:05:40;3.10;99.90
20147;DHT22;10234;50.856;15.716;2023-02-03T14:11:47;3.10;99.90
20147;DHT22;10234;50.856;15.716;2023-02-03T14:14:40;2.70;99.90
20147;DHT22;10234;50.856;15.716;2023-02-03T14:20:38;3.20;99.90
20147;DHT22;10234;50.856;15.716;2023-02-03T14:23:11;3.40;99.90
20147;DHT22;10234;50.856;15.716;2023-02-03T14:25:41;3.60;99.90
20147;DHT22;10234;50.856;15.716;2023-02-03T14:28:13;3.70;99.90
20147;DHT22;10234;50.856;15.716;2023-02-03T14:31:18;4.30;99.90
20147;DHT22;10234;50.856;15.716;2023-02-03T14:34:06;3.70;99.90
20147;DHT22;10234;50.856;15.716;2023-02-03T14:39:35;5.30;99.90
20147;DHT22;10234;50.856;15.716;2023-02-03T14:42:12;4.30;99.90
20147;DHT22;10234;50.856;15.716;2023-02-03T14:47:25;4.40;99.90
20147;DHT22;10234;50.856;15.716;2023-02-03T14:50:12;4.40;99.90
20147;DHT22;10234;50.856;15.716;2023-02-03T14:53:01;4.30;99.90
20147;DHT22;10234;50.856;15.716;2023-02-03T14:55:41;4.20;99.90
20147;DHT22;10234;50.856;15.716;2023-02-03T14:58:20;4.00;99.90
20147;DHT22;10234;50.856;15.716;2023-02-03T15:03:25;4.00;99.90
20147;DHT22;10234;50.856;15.716;2023-02-03T15:08:45;4.00;99.90
20147;DHT22;10234;50.856;15.716;2023-02-03T15:11:22;4.00;99.90
20147;DHT22;10234;50.856;15.716;2023-02-03T15:16:19;3.90;99.90
20147;DHT22;10234;50.856;15.716;2023-02-03T15:18:53;3.90;99.90
20147;DHT22;10234;50.856;15.716;2023-02-03T15:23:48;3.90;99.90
20147;DHT22;10234;50.856;15.716;2023-02-03T15:26:17;3.90;99.90
20147;DHT22;10234;50.856;15.716;2023-02-03T15:28:53;4.00;99.90
20147;DHT22;10234;50.856;15.716;2023-02-03T15:31:24;3.80;99.90
20147;DHT22;10234;50.856;15.716;2023-02-03T15:33:54;4.00;99.90
20147;DHT22;10234;50.856;15.716;2023-02-03T15:36:26;3.90;99.90
20147;DHT22;10234;50.856;15.716;2023-02-03T15:39:04;3.90;99.90
20147;DHT22;10234;50.856;15.716;2023-02-03T15:44:02;3.90;99.90
20147;DHT22;10234;50.856;15.716;2023-02-03T15:46:36;3.90;99.90
20147;DHT22;10234;50.856;15.716;2023-02-03T15:49:07;3.80;99.90
20147;DHT22;10234;50.856;15.716;2023-02-03T15:51:40;3.60;99.90
20147;DHT22;10234;50.856;15.716;2023-02-03T15:54:13;3.00;99.90
20147;DHT22;10234;50.856;15.716;2023-02-03T15:56:45;2.60;99.90
20147;DHT22;10234;50.856;15.716;2023-02-03T15:59:19;2.30;99.90
20147;DHT22;10234;50.856;15.716;2023-02-03T16:01:47;2.00;99.90
20147;DHT22;10234;50.856;15.716;2023-02-03T16:04:15;1.70;99.90
20147;DHT22;10234;50.856;15.716;2023-02-03T16:06:45;1.70;99.90
20147;DHT22;10234;50.856;15.716;2023-02-03T16:09:29;1.70;99.90
20147;DHT22;10234;50.856;15.716;2023-02-03T16:12:14;1.90;99.90
20147;DHT22;10234;50.856;15.716;2023-02-03T16:14:42;1.70;99.90
20147;DHT22;10234;50.856;15.716;2023-02-03T16:17:22;1.80;99.90
20147;DHT22;10234;50.856;15.716;2023-02-03T16:19:51;1.90;99.90
20147;DHT22;10234;50.856;15.716;2023-02-03T16:22:26;1.90;99.90
20147;DHT22;10234;50.856;15.716;2023-02-03T16:27:30;2.10;99.90
20147;DHT22;10234;50.856;15.716;2023-02-03T16:30:19;3.20;99.90
20147;DHT22;10234;50.856;15.716;2023-02-03T16:33:12;1.50;99.90
20147;DHT22;10234;50.856;15.716;2023-02-03T16:36:01;2.30;99.90
20147;DHT22;10234;50.856;15.716;2023-02-03T16:38:46;2.20;99.90
20147;DHT22;10234;50.856;15.716;2023-02-03T16:41:31;2.60;99.90
20147;DHT22;10234;50.856;15.716;2023-02-03T16:47:00;2.00;99.90
20147;DHT22;10234;50.856;15.716;2023-02-03T16:49:45;2.60;99.90
20147;DHT22;10234;50.856;15.716;2023-02-03T16:52:31;2.60;99.90
20147;DHT22;10234;50.856;15.716;2023-02-03T17:07:13;2.50;99.90
20147;DHT22;10234;50.856;15.716;2023-02-03T17:09:42;2.80;99.90
20147;DHT22;10234;50.856;15.716;2023-02-03T17:19:30;3.40;99.90
20147;DHT22;10234;50.856;15.716;2023-02-03T17:21:57;3.20;99.90
20147;DHT22;10234;50.856;15.716;2023-02-03T17:26:52;3.10;99.90
20147;DHT22;10234;50.856;15.716;2023-02-03T17:34:13;3.30;99.90
20147;DHT22;10234;50.856;15.716;2023-02-03T17:36:40;3.20;99.90
20147;DHT22;10234;50.856;15.716;2023-02-03T17:41:34;3.20;99.90
20147;DHT22;10234;50.856;15.716;2023-02-03T17:44:02;3.20;99.90
20147;DHT22;10234;50.856;15.716;2023-02-03T17:51:24;3.30;99.90
20147;DHT22;10234;50.856;15.716;2023-02-03T17:53:55;4.90;99.90
20147;DHT22;10234;50.856;15.716;2023-02-03T17:56:23;3.40;99.90
20147;DHT22;10234;50.856;15.716;2023-02-03T17:58:54;3.40;99.90
20147;DHT22;10234;50.856;15.716;2023-02-03T18:01:22;3.40;99.90
20147;DHT22;10234;50.856;15.716;2023-02-03T18:03:51;3.30;99.90
20147;DHT22;10234;50.856;15.716;2023-02-03T18:06:20;3.40;99.90
20147;DHT22;10234;50.856;15.716;2023-02-03T18:11:15;3.30;99.90
20147;DHT22;10234;50.856;15.716;2023-02-03T18:16:20;3.10;99.90
20147;DHT22;10234;50.856;15.716;2023-02-03T18:18:52;3.30;99.90
20147;DHT22;10234;50.856;15.716;2023-02-03T18:21:23;3.40;99.90
20147;DHT22;10234;50.856;15.716;2023-02-03T18:23:52;1.70;99.90
20147;DHT22;10234;50.856;15.716;2023-02-03T18:26:24;3.70;99.90
20147;DHT22;10234;50.856;15.716;2023-02-03T18:31:21;3.20;99.90
20147;DHT22;10234;50.856;15.716;2023-02-03T18:33:51;3.20;99.90
20147;DHT22;10234;50.856;15.716;2023-02-03T18:36:19;3.30;99.90
20147;DHT22;10234;50.856;15.716;2023-02-03T18:38:47;3.70;99.90
20147;DHT22;10234;50.856;15.716;2023-02-03T18:41:17;3.30;99.90
20147;DHT22;10234;50.856;15.716;2023-02-03T18:43:44;3.20;99.90
20147;DHT22;10234;50.856;15.716;2023-02-03T18:46:16;3.20;99.90
20147;DHT22;10234;50.856;15.716;2023-02-03T18:48:46;3.10;99.90
20147;DHT22;10234;50.856;15.716;2023-02-03T18:51:17;3.10;99.90
20147;DHT22;10234;50.856;15.716;2023-02-03T18:53:44;3.10;99.90
20147;DHT22;10234;50.856;15.716;2023-02-03T18:56:14;3.70;99.90
20147;DHT22;10234;50.856;15.716;2023-02-03T19:01:09;3.00;99.90
20147;DHT22;10234;50.856;15.716;2023-02-03T19:08:40;2.90;99.90
20147;DHT22;10234;50.856;15.716;2023-02-03T19:13:37;2.90;99.90
20147;DHT22;10234;50.856;15.716;2023-02-03T19:16:05;2.90;99.90
20147;DHT22;10234;50.856;15.716;2023-02-03T19:23:30;2.90;99.90
20147;DHT22;10234;50.856;15.716;2023-02-03T19:25:59;2.80;99.90